Bottineau, North Dakota
Current Conditions -  °F | °C
As of 2:55 PM on Tuesday 21 Oct 2014 (Local Time) from KRUG Reporting Station
Clear Clear  
Wind Chill: 66°   Ceiling: Unl
Heat Index: 66°   Visibility: 10mi
Dew Point: 45°   Wind: 16mph
Humidity: 46%   Direction: 140°SE
Pressure: 29.72"   Gusts: 26mph
Location:  48.83°N, 100.45°W
Report Text: KRUG 211955Z AUTO 14014G23KT 10SM CLR 19/07 A2972 RMK AO2
Loading
Personal Weather Stations






























Interactive Weather Map
Tropical Storm Tracking
New forecast layout! Learn more

10-Day Weather Forecast

Advertisements
Track Severe Weather on mobile